Hopa, Turkey

4:00 PM EEST on August 28, 2015 (GMT +0300)
Batumi | | Change Station
CLOSE
Current Station
Airport
Location: Batumi,
Elevation: 105 ft
Nearby Weather Stations

Elev 105 ft 41.63 °N, 41.60 °E | Updated 30 minutes ago

Mostly Cloudy
Mostly Cloudy
79 °F
Feels Like 79 °F
N
10
Wind Variable Wind from SW

Today
High -- | Low -- °F
--% Chance of Precip.
Yesterday
High -- | Low -- °F
Precip. -- in
5:35 AM 6:54 PM
Waxing Gibbous, 98% visible
Pressure 30.12 in
Visibility 6.2 miles
Clouds Mostly Cloudy 2000 ft
Dew Point 70 °F
Humidity 74%
Rainfall 0.00 in
Snow Depth Not available.
UV 2 out of 12
Pollen Not available.
Air Quality Not available.
Flu Activity Not available.
METAR UGSB 281230Z 22009KT 9999 BKN020CB 26/21 Q1020 R13/CLRD70 NOSIG
Pressure 30.12 in
Visibility 6.2 miles
Clouds Mostly Cloudy 2000 ft
Dew Point 70 °F
Humidity 74%
Rainfall 0.00 in
Snow Depth Not available.
UV 2 out of 12
Pollen Not available.
Air Quality Not available.
Flu Activity Not available.
METAR UGSB 281230Z 22009KT 9999 BKN020CB 26/21 Q1020 R13/CLRD70 NOSIG

10-Day Weather Forecast

×

Almanac

Astronomy

Aug. 28, 2015 Rise Set
Actual Time
Civil Twilight
Nautical Twilight
Astronomical Twilight
Moon
Length of Visible Light
Length of Day
Tomorrow will be .
, % of the Moon is Illuminated

Today's Extremes

Country Highs Country Lows

Community

WunderPhotos

Upload Photos

1,850,375 photos uploaded!

WunderBlogs® & News

Nearby

Air Quality

  Air Quality AQ Index Pollutant
Not available.

Snow Depth

Station Depth Elevation

Earthquake Activity

City Distance Mag. Time & Date
Minimum magnitude displayed is 2.5.

Coastal Water Temperatures

Place Temperature

Stations

Nearby Weather Stations

Station Location Temp. Windchill Dew Point Humidity Wind Precip. Elev Updated Type